ASA83 KSEA-PANC
Flight info
| Callsign | ASA83 |
|---|---|
| Flight time | 3h 15m |
| Altitude | 32000 |
| Route | BANGR9 ARRIE FOCHE PRYCE BKA LAIRE JOH PTERS3 |
| Aircraft | B739/M-SDE2E3FGHIRWXY/LB1 |
Departure
| Time | 2026-05-07 16:20 |
|---|---|
| Airport | Seattle–Tacoma International Airport (KSEA) |
Arrival
| Time | 2026-05-07 19:35 |
|---|---|
| Airport | Ted Stevens Anchorage International Airport (PANC) |
| Time | Latitude | Longitude | Altitude | Speed | Heading |
|---|---|---|---|---|---|
| 2026-05-07 15:54 | 47.44804 | -122.30069 | 383 ft | 0 kts | 271° |
| 2026-05-07 16:10 | 47.44804 | -122.30063 | 383 ft | 2 kts | 271° |
| 2026-05-07 16:10 | 47.44804 | -122.30039 | 383 ft | 2 kts | 271° |
| 2026-05-07 16:11 | 47.44804 | -122.30015 | 383 ft | 2 kts | 278° |
| 2026-05-07 16:11 | 47.44799 | -122.29992 | 383 ft | 2 kts | 325° |
| 2026-05-07 16:11 | 47.44790 | -122.29986 | 383 ft | 1 kts | 6° |
| 2026-05-07 16:11 | 47.44787 | -122.29986 | 383 ft | 0 kts | 7° |
| 2026-05-07 16:15 | 47.44802 | -122.29985 | 383 ft | 8 kts | 359° |
| 2026-05-07 16:15 | 47.44897 | -122.30043 | 383 ft | 20 kts | 322° |
| 2026-05-07 16:15 | 47.44995 | -122.30205 | 383 ft | 22 kts | 308° |
| 2026-05-07 16:15 | 47.45043 | -122.30404 | 383 ft | 20 kts | 273° |
| 2026-05-07 16:16 | 47.45046 | -122.30580 | 383 ft | 13 kts | 284° |
| 2026-05-07 16:16 | 47.45124 | -122.30626 | 383 ft | 13 kts | 2° |
| 2026-05-07 16:16 | 47.45213 | -122.30626 | 383 ft | 14 kts | 0° |
| 2026-05-07 16:16 | 47.45335 | -122.30626 | 383 ft | 20 kts | 0° |
| 2026-05-07 16:17 | 47.45491 | -122.30626 | 383 ft | 25 kts | 0° |
| 2026-05-07 16:17 | 47.45677 | -122.30626 | 383 ft | 29 kts | 360° |
| 2026-05-07 16:17 | 47.45882 | -122.30622 | 383 ft | 28 kts | 1° |
| 2026-05-07 16:17 | 47.46073 | -122.30615 | 383 ft | 27 kts | 1° |
| 2026-05-07 16:18 | 47.46233 | -122.30615 | 383 ft | 16 kts | 360° |
| 2026-05-07 16:18 | 47.46332 | -122.30616 | 383 ft | 13 kts | 354° |
| 2026-05-07 16:18 | 47.46375 | -122.30705 | 383 ft | 9 kts | 268° |
| 2026-05-07 16:18 | 47.46352 | -122.30772 | 383 ft | 8 kts | 203° |
| 2026-05-07 16:19 | 47.46299 | -122.30777 | 383 ft | 7 kts | 179° |
| 2026-05-07 16:19 | 47.46212 | -122.30777 | 383 ft | 31 kts | 180° |
| 2026-05-07 16:19 | 47.45753 | -122.30781 | 383 ft | 98 kts | 180° |
| 2026-05-07 16:19 | 47.44877 | -122.30788 | 383 ft | 151 kts | 180° |
| 2026-05-07 16:20 | 47.43696 | -122.30803 | 521 ft | 181 kts | 182° |
| 2026-05-07 16:20 | 47.42396 | -122.30848 | 959 ft | 197 kts | 182° |
| 2026-05-07 16:20 | 47.41261 | -122.30883 | 1587 ft | 195 kts | 182° |
| 2026-05-07 16:20 | 47.39964 | -122.30918 | 2537 ft | 179 kts | 182° |
| 2026-05-07 16:21 | 47.38754 | -122.30926 | 3392 ft | 173 kts | 180° |
| 2026-05-07 16:21 | 47.37486 | -122.30906 | 3679 ft | 196 kts | 179° |
| 2026-05-07 16:21 | 47.36012 | -122.30861 | 3723 ft | 226 kts | 179° |
| 2026-05-07 16:21 | 47.34397 | -122.30793 | 4205 ft | 232 kts | 178° |
| 2026-05-07 16:22 | 47.32822 | -122.30775 | 5001 ft | 227 kts | 189° |
| 2026-05-07 16:22 | 47.31392 | -122.31838 | 5204 ft | 244 kts | 231° |
| 2026-05-07 16:22 | 47.30683 | -122.34143 | 5454 ft | 260 kts | 269° |
| 2026-05-07 16:22 | 47.30832 | -122.36786 | 6059 ft | 264 kts | 275° |
| 2026-05-07 16:23 | 47.30851 | -122.39528 | 6758 ft | 269 kts | 268° |
| 2026-05-07 16:23 | 47.30713 | -122.42285 | 7479 ft | 271 kts | 271° |
| 2026-05-07 16:23 | 47.31094 | -122.44988 | 8149 ft | 272 kts | 292° |
| 2026-05-07 16:23 | 47.31921 | -122.47502 | 8866 ft | 274 kts | 299° |
| 2026-05-07 16:24 | 47.32844 | -122.49976 | 9566 ft | 277 kts | 300° |
| 2026-05-07 16:24 | 47.33953 | -122.52316 | 10202 ft | 282 kts | 315° |
| 2026-05-07 16:24 | 47.35453 | -122.54317 | 10437 ft | 302 kts | 317° |
| 2026-05-07 16:24 | 47.36963 | -122.56613 | 10593 ft | 322 kts | 311° |
| 2026-05-07 16:25 | 47.38435 | -122.59184 | 10744 ft | 342 kts | 309° |
| 2026-05-07 16:25 | 47.39974 | -122.61965 | 10891 ft | 361 kts | 309° |
| 2026-05-07 16:25 | 47.41603 | -122.64914 | 11037 ft | 377 kts | 309° |
| 2026-05-07 16:25 | 47.43289 | -122.67943 | 11395 ft | 385 kts | 309° |
| 2026-05-07 16:26 | 47.45004 | -122.71001 | 11942 ft | 388 kts | 309° |
| 2026-05-07 16:26 | 47.46719 | -122.74042 | 12499 ft | 389 kts | 309° |
| 2026-05-07 16:26 | 47.48481 | -122.77153 | 13023 ft | 392 kts | 309° |
| 2026-05-07 16:26 | 47.49642 | -122.79202 | 13355 ft | 394 kts | 309° |
| 2026-05-07 16:27 | 47.51983 | -122.83330 | 13998 ft | 397 kts | 309° |
| 2026-05-07 16:27 | 47.53764 | -122.86472 | 14429 ft | 400 kts | 309° |
| 2026-05-07 16:27 | 47.55555 | -122.89635 | 14863 ft | 402 kts | 309° |
| 2026-05-07 16:27 | 47.57357 | -122.92820 | 15291 ft | 404 kts | 309° |
| 2026-05-07 16:28 | 47.59167 | -122.96026 | 15729 ft | 406 kts | 309° |
| 2026-05-07 16:28 | 47.60984 | -122.99247 | 16150 ft | 408 kts | 309° |
| 2026-05-07 16:28 | 47.62811 | -123.02489 | 16552 ft | 411 kts | 309° |
| 2026-05-07 16:28 | 47.64646 | -123.05750 | 16929 ft | 413 kts | 309° |
| 2026-05-07 16:29 | 47.66490 | -123.09030 | 17309 ft | 416 kts | 309° |
| 2026-05-07 16:29 | 47.68343 | -123.12332 | 17691 ft | 418 kts | 309° |
| 2026-05-07 16:29 | 47.70182 | -123.15611 | 18051 ft | 419 kts | 308° |
| 2026-05-07 16:29 | 47.72051 | -123.18949 | 18422 ft | 421 kts | 308° |
| 2026-05-07 16:30 | 47.73927 | -123.22304 | 18731 ft | 424 kts | 308° |
| 2026-05-07 16:30 | 47.75814 | -123.25683 | 19084 ft | 425 kts | 308° |
| 2026-05-07 16:30 | 47.77700 | -123.29063 | 19430 ft | 426 kts | 308° |
| 2026-05-07 16:30 | 47.79593 | -123.32460 | 19750 ft | 427 kts | 308° |
| 2026-05-07 16:31 | 47.81490 | -123.35870 | 20080 ft | 429 kts | 308° |
| 2026-05-07 16:31 | 47.83387 | -123.39282 | 20423 ft | 430 kts | 308° |
| 2026-05-07 16:31 | 47.85278 | -123.42688 | 20760 ft | 432 kts | 308° |
| 2026-05-07 16:31 | 47.87210 | -123.46117 | 21079 ft | 433 kts | 310° |
| 2026-05-07 16:32 | 47.89367 | -123.49224 | 21375 ft | 437 kts | 319° |
| 2026-05-07 16:32 | 47.91831 | -123.51957 | 21663 ft | 439 kts | 322° |
| 2026-05-07 16:32 | 47.94318 | -123.54612 | 21918 ft | 440 kts | 322° |
| 2026-05-07 16:32 | 47.96812 | -123.57264 | 22235 ft | 441 kts | 322° |
| 2026-05-07 16:33 | 47.99315 | -123.59937 | 22514 ft | 443 kts | 322° |
| 2026-05-07 16:33 | 48.01820 | -123.62632 | 22776 ft | 445 kts | 322° |
| 2026-05-07 16:33 | 48.04296 | -123.65314 | 23031 ft | 446 kts | 321° |
| 2026-05-07 16:33 | 48.06810 | -123.68050 | 23298 ft | 448 kts | 321° |
| 2026-05-07 16:34 | 48.09329 | -123.70802 | 23576 ft | 449 kts | 321° |
| 2026-05-07 16:34 | 48.11854 | -123.73566 | 23820 ft | 450 kts | 321° |
| 2026-05-07 16:34 | 48.14384 | -123.76342 | 24026 ft | 452 kts | 321° |
| 2026-05-07 16:34 | 48.16921 | -123.79127 | 24249 ft | 453 kts | 321° |
| 2026-05-07 16:35 | 48.19463 | -123.81921 | 24489 ft | 453 kts | 321° |
| 2026-05-07 16:35 | 48.22005 | -123.84718 | 24694 ft | 454 kts | 321° |
| 2026-05-07 16:35 | 48.24519 | -123.87489 | 24908 ft | 455 kts | 321° |
| 2026-05-07 16:35 | 48.27074 | -123.90308 | 25128 ft | 456 kts | 321° |
| 2026-05-07 16:36 | 48.29633 | -123.93133 | 25346 ft | 457 kts | 321° |
| 2026-05-07 16:36 | 48.32196 | -123.95968 | 25565 ft | 458 kts | 321° |
| 2026-05-07 16:36 | 48.34759 | -123.98806 | 25818 ft | 458 kts | 321° |
| 2026-05-07 16:36 | 48.37318 | -124.01642 | 26135 ft | 456 kts | 321° |
| 2026-05-07 16:37 | 48.39866 | -124.04470 | 26502 ft | 454 kts | 320° |
| 2026-05-07 16:37 | 48.42396 | -124.07281 | 26879 ft | 451 kts | 320° |
| 2026-05-07 16:37 | 48.44918 | -124.10087 | 27270 ft | 449 kts | 320° |
| 2026-05-07 16:37 | 48.47425 | -124.12880 | 27629 ft | 448 kts | 320° |
| 2026-05-07 16:38 | 48.49893 | -124.15634 | 28005 ft | 446 kts | 320° |
| 2026-05-07 16:38 | 48.52380 | -124.18412 | 28400 ft | 444 kts | 320° |
| 2026-05-07 16:38 | 48.54857 | -124.21183 | 28798 ft | 443 kts | 320° |
| 2026-05-07 16:38 | 48.57326 | -124.23948 | 29213 ft | 441 kts | 320° |
| 2026-05-07 16:39 | 48.59782 | -124.26703 | 29656 ft | 439 kts | 320° |
| 2026-05-07 16:39 | 48.62223 | -124.29442 | 30101 ft | 436 kts | 320° |
| 2026-05-07 16:39 | 48.64653 | -124.32174 | 30476 ft | 433 kts | 320° |
| 2026-05-07 16:39 | 48.67030 | -124.34850 | 30798 ft | 432 kts | 319° |
| 2026-05-07 16:40 | 48.69439 | -124.37565 | 31084 ft | 432 kts | 319° |
| 2026-05-07 16:40 | 48.71845 | -124.40280 | 31390 ft | 431 kts | 319° |
| 2026-05-07 16:40 | 48.74243 | -124.42989 | 31721 ft | 430 kts | 319° |
| 2026-05-07 16:40 | 48.76632 | -124.45690 | 32092 ft | 427 kts | 319° |
| 2026-05-07 16:41 | 48.79006 | -124.48378 | 32454 ft | 425 kts | 319° |
| 2026-05-07 16:41 | 48.81371 | -124.51058 | 32749 ft | 424 kts | 319° |
| 2026-05-07 16:41 | 48.83728 | -124.53735 | 33048 ft | 423 kts | 319° |
| 2026-05-07 16:41 | 48.86048 | -124.56371 | 33352 ft | 422 kts | 319° |
| 2026-05-07 16:42 | 48.88389 | -124.59036 | 33632 ft | 421 kts | 319° |
| 2026-05-07 16:42 | 48.90730 | -124.61703 | 33837 ft | 420 kts | 319° |
| 2026-05-07 16:42 | 48.93068 | -124.64371 | 34097 ft | 419 kts | 319° |
| 2026-05-07 16:43 | 48.97719 | -124.69685 | 34221 ft | 417 kts | 319° |
| 2026-05-07 16:43 | 49.02375 | -124.75019 | 34206 ft | 419 kts | 318° |
| 2026-05-07 16:44 | 49.07034 | -124.80366 | 34202 ft | 419 kts | 318° |
| 2026-05-07 16:44 | 49.11675 | -124.85674 | 34200 ft | 420 kts | 319° |
| 2026-05-07 16:45 | 49.16341 | -124.91013 | 34211 ft | 419 kts | 318° |
| 2026-05-07 16:45 | 49.21004 | -124.96364 | 34215 ft | 419 kts | 318° |
| 2026-05-07 16:46 | 49.25658 | -125.01720 | 34216 ft | 419 kts | 318° |
| 2026-05-07 16:46 | 49.30283 | -125.07057 | 34202 ft | 419 kts | 318° |
| 2026-05-07 16:47 | 49.34929 | -125.12431 | 34202 ft | 418 kts | 318° |
| 2026-05-07 16:47 | 49.39572 | -125.17815 | 34195 ft | 418 kts | 318° |
| 2026-05-07 16:48 | 49.44206 | -125.23201 | 34201 ft | 418 kts | 318° |
| 2026-05-07 16:48 | 49.48809 | -125.28565 | 34192 ft | 418 kts | 318° |
| 2026-05-07 16:49 | 49.53439 | -125.33974 | 34209 ft | 417 kts | 317° |
| 2026-05-07 16:49 | 49.58057 | -125.39379 | 34177 ft | 417 kts | 318° |
| 2026-05-07 16:50 | 49.62667 | -125.44791 | 34207 ft | 417 kts | 317° |
| 2026-05-07 16:50 | 49.67264 | -125.50201 | 34198 ft | 418 kts | 317° |
| 2026-05-07 16:51 | 49.71894 | -125.55663 | 34205 ft | 419 kts | 317° |
| 2026-05-07 16:51 | 49.76519 | -125.61130 | 34205 ft | 418 kts | 317° |
| 2026-05-07 16:52 | 49.81133 | -125.66598 | 34207 ft | 418 kts | 317° |
| 2026-05-07 16:52 | 49.85704 | -125.72029 | 34194 ft | 416 kts | 317° |
| 2026-05-07 16:53 | 49.90297 | -125.77499 | 34185 ft | 416 kts | 317° |
| 2026-05-07 16:53 | 49.94874 | -125.82965 | 34202 ft | 415 kts | 317° |
| 2026-05-07 16:54 | 49.99444 | -125.88436 | 34189 ft | 415 kts | 317° |
| 2026-05-07 16:54 | 50.03244 | -125.92995 | 34196 ft | 415 kts | 317° |
| 2026-05-07 16:55 | 50.08546 | -125.99372 | 34176 ft | 415 kts | 317° |
| 2026-05-07 16:55 | 50.13102 | -126.04866 | 34203 ft | 415 kts | 317° |
| 2026-05-07 16:56 | 50.16471 | -126.08938 | 34204 ft | 414 kts | 317° |
| 2026-05-07 16:56 | 50.23308 | -126.17223 | 34215 ft | 414 kts | 317° |
| 2026-05-07 16:57 | 50.27860 | -126.22756 | 34223 ft | 414 kts | 317° |
| 2026-05-07 16:57 | 50.32404 | -126.28294 | 34183 ft | 414 kts | 317° |
| 2026-05-07 16:58 | 50.36932 | -126.33825 | 34206 ft | 413 kts | 317° |
| 2026-05-07 16:58 | 50.39194 | -126.36595 | 34035 ft | 413 kts | 317° |
| 2026-05-07 16:58 | 50.41457 | -126.39369 | 34148 ft | 413 kts | 317° |
| 2026-05-07 16:59 | 50.45980 | -126.44926 | 34220 ft | 419 kts | 317° |
| 2026-05-07 16:59 | 50.50637 | -126.50661 | 34234 ft | 425 kts | 317° |
| 2026-05-07 17:00 | 50.55289 | -126.56403 | 34230 ft | 430 kts | 317° |
| 2026-05-07 17:00 | 50.59999 | -126.62227 | 34239 ft | 431 kts | 317° |
| 2026-05-07 17:01 | 50.64720 | -126.68081 | 34236 ft | 431 kts | 317° |
| 2026-05-07 17:01 | 50.69430 | -126.73939 | 34232 ft | 431 kts | 317° |
| 2026-05-07 17:02 | 50.74136 | -126.79806 | 34236 ft | 431 kts | 317° |
| 2026-05-07 17:02 | 50.78828 | -126.85673 | 34237 ft | 430 kts | 317° |
| 2026-05-07 17:03 | 50.83483 | -126.91509 | 34240 ft | 429 kts | 317° |
| 2026-05-07 17:03 | 50.88166 | -126.97395 | 34234 ft | 429 kts | 317° |
| 2026-05-07 17:04 | 50.92832 | -127.03275 | 34241 ft | 428 kts | 317° |
| 2026-05-07 17:04 | 50.97491 | -127.09162 | 34237 ft | 428 kts | 317° |
| 2026-05-07 17:05 | 51.02139 | -127.15051 | 34253 ft | 427 kts | 317° |
| 2026-05-07 17:05 | 51.06784 | -127.20952 | 34235 ft | 427 kts | 317° |
| 2026-05-07 17:06 | 51.11426 | -127.26865 | 34229 ft | 427 kts | 317° |
| 2026-05-07 17:06 | 51.16067 | -127.32791 | 34230 ft | 428 kts | 317° |
| 2026-05-07 17:07 | 51.20711 | -127.38739 | 34229 ft | 428 kts | 317° |
| 2026-05-07 17:07 | 51.25324 | -127.44662 | 34241 ft | 429 kts | 317° |
| 2026-05-07 17:08 | 51.29975 | -127.50650 | 34236 ft | 430 kts | 317° |
| 2026-05-07 17:08 | 51.34642 | -127.56674 | 34226 ft | 430 kts | 316° |
| 2026-05-07 17:09 | 51.39297 | -127.62698 | 34230 ft | 431 kts | 316° |
| 2026-05-07 17:09 | 51.43962 | -127.68752 | 34223 ft | 431 kts | 316° |
| 2026-05-07 17:10 | 51.48622 | -127.74815 | 34228 ft | 431 kts | 316° |
| 2026-05-07 17:10 | 51.53245 | -127.80847 | 34223 ft | 431 kts | 316° |
| 2026-05-07 17:11 | 51.57890 | -127.86925 | 34221 ft | 430 kts | 316° |
| 2026-05-07 17:11 | 51.62533 | -127.93016 | 34222 ft | 430 kts | 316° |
| 2026-05-07 17:12 | 51.67164 | -127.99108 | 34222 ft | 430 kts | 316° |
| 2026-05-07 17:12 | 51.71793 | -128.05214 | 34234 ft | 429 kts | 316° |
| 2026-05-07 17:13 | 51.76405 | -128.11314 | 34232 ft | 429 kts | 316° |
| 2026-05-07 17:13 | 51.81014 | -128.17428 | 34216 ft | 429 kts | 316° |
| 2026-05-07 17:14 | 51.85595 | -128.23521 | 34227 ft | 429 kts | 316° |
| 2026-05-07 17:14 | 51.90205 | -128.29668 | 34225 ft | 429 kts | 315° |
| 2026-05-07 17:15 | 51.94802 | -128.35816 | 34222 ft | 428 kts | 315° |
| 2026-05-07 17:15 | 51.99398 | -128.41978 | 34224 ft | 428 kts | 315° |
| 2026-05-07 17:16 | 52.03986 | -128.48148 | 34220 ft | 428 kts | 315° |
| 2026-05-07 17:16 | 52.08573 | -128.54332 | 34226 ft | 428 kts | 315° |
| 2026-05-07 17:17 | 52.13154 | -128.60527 | 34221 ft | 428 kts | 315° |
| 2026-05-07 17:17 | 52.17733 | -128.66737 | 34225 ft | 428 kts | 315° |
| 2026-05-07 17:18 | 52.22306 | -128.72952 | 34223 ft | 428 kts | 315° |
| 2026-05-07 17:18 | 52.26892 | -128.79053 | 34221 ft | 429 kts | 317° |
| 2026-05-07 17:19 | 52.31624 | -128.85012 | 34217 ft | 429 kts | 317° |
| 2026-05-07 17:19 | 52.36360 | -128.90964 | 34220 ft | 429 kts | 317° |
| 2026-05-07 17:20 | 52.41080 | -128.96952 | 34209 ft | 429 kts | 317° |
| 2026-05-07 17:20 | 52.45783 | -129.02959 | 34209 ft | 429 kts | 316° |
| 2026-05-07 17:21 | 52.50485 | -129.08991 | 34210 ft | 429 kts | 316° |
| 2026-05-07 17:21 | 52.55153 | -129.14997 | 34214 ft | 429 kts | 316° |
| 2026-05-07 17:22 | 52.59847 | -129.21052 | 34212 ft | 429 kts | 316° |
| 2026-05-07 17:22 | 52.64534 | -129.27114 | 34215 ft | 428 kts | 316° |
| 2026-05-07 17:23 | 52.69216 | -129.33188 | 34216 ft | 429 kts | 316° |
| 2026-05-07 17:23 | 52.73898 | -129.39278 | 34213 ft | 428 kts | 316° |
| 2026-05-07 17:24 | 52.78581 | -129.45388 | 34212 ft | 429 kts | 316° |
| 2026-05-07 17:24 | 52.83262 | -129.51510 | 34215 ft | 429 kts | 316° |
| 2026-05-07 17:25 | 52.87935 | -129.57641 | 34213 ft | 429 kts | 316° |
| 2026-05-07 17:25 | 52.92601 | -129.63780 | 34214 ft | 429 kts | 316° |
| 2026-05-07 17:26 | 52.97241 | -129.69902 | 34216 ft | 429 kts | 316° |
| 2026-05-07 17:26 | 53.01906 | -129.76074 | 34218 ft | 429 kts | 316° |
| 2026-05-07 17:27 | 53.06571 | -129.82263 | 34219 ft | 429 kts | 315° |
| 2026-05-07 17:27 | 53.11235 | -129.88469 | 34220 ft | 429 kts | 315° |
| 2026-05-07 17:28 | 53.15897 | -129.94690 | 34218 ft | 429 kts | 315° |
| 2026-05-07 17:28 | 53.20565 | -130.00936 | 34220 ft | 430 kts | 315° |
| 2026-05-07 17:29 | 53.25194 | -130.07148 | 34218 ft | 430 kts | 315° |
| 2026-05-07 17:29 | 53.29878 | -130.13454 | 34219 ft | 430 kts | 315° |
| 2026-05-07 17:30 | 53.34503 | -130.19697 | 34216 ft | 430 kts | 315° |
| 2026-05-07 17:30 | 53.39153 | -130.25992 | 34216 ft | 430 kts | 315° |
| 2026-05-07 17:31 | 53.43805 | -130.32308 | 34217 ft | 430 kts | 315° |
| 2026-05-07 17:31 | 53.48453 | -130.38637 | 34213 ft | 430 kts | 315° |
| 2026-05-07 17:32 | 53.53101 | -130.44984 | 34199 ft | 430 kts | 315° |
| 2026-05-07 17:32 | 53.56957 | -130.50264 | 34219 ft | 430 kts | 315° |
| 2026-05-07 17:33 | 53.62378 | -130.57709 | 34205 ft | 430 kts | 315° |
| 2026-05-07 17:33 | 53.66981 | -130.64049 | 34215 ft | 430 kts | 315° |
| 2026-05-07 17:34 | 53.71613 | -130.70450 | 34215 ft | 430 kts | 315° |
| 2026-05-07 17:34 | 53.76242 | -130.76865 | 34221 ft | 430 kts | 314° |
| 2026-05-07 17:35 | 53.80864 | -130.83288 | 34215 ft | 430 kts | 314° |
| 2026-05-07 17:35 | 53.85480 | -130.89722 | 34237 ft | 430 kts | 314° |
| 2026-05-07 17:36 | 53.90062 | -130.96127 | 34240 ft | 429 kts | 314° |
| 2026-05-07 17:36 | 53.94666 | -131.02582 | 34244 ft | 429 kts | 314° |
| 2026-05-07 17:37 | 53.99265 | -131.09050 | 34244 ft | 429 kts | 314° |
| 2026-05-07 17:37 | 54.03852 | -131.15520 | 34249 ft | 428 kts | 314° |
| 2026-05-07 17:38 | 54.08435 | -131.22004 | 34250 ft | 428 kts | 314° |
| 2026-05-07 17:38 | 54.13012 | -131.28499 | 34257 ft | 428 kts | 314° |
| 2026-05-07 17:39 | 54.17581 | -131.35000 | 34263 ft | 427 kts | 314° |
| 2026-05-07 17:39 | 54.22116 | -131.41473 | 34267 ft | 427 kts | 314° |
| 2026-05-07 17:40 | 54.26666 | -131.47987 | 34271 ft | 427 kts | 314° |
| 2026-05-07 17:40 | 54.31217 | -131.54522 | 34272 ft | 426 kts | 314° |
| 2026-05-07 17:41 | 54.35762 | -131.61067 | 34271 ft | 426 kts | 313° |
| 2026-05-07 17:41 | 54.40293 | -131.67611 | 34269 ft | 425 kts | 313° |
| 2026-05-07 17:42 | 54.44817 | -131.74165 | 34268 ft | 425 kts | 313° |
| 2026-05-07 17:42 | 54.49308 | -131.80691 | 34253 ft | 425 kts | 313° |
| 2026-05-07 17:43 | 54.53814 | -131.87260 | 34255 ft | 424 kts | 313° |
| 2026-05-07 17:43 | 54.58313 | -131.93836 | 34260 ft | 424 kts | 313° |
| 2026-05-07 17:44 | 54.62810 | -132.00430 | 34255 ft | 424 kts | 313° |
| 2026-05-07 17:44 | 54.67293 | -132.07023 | 34255 ft | 423 kts | 313° |
| 2026-05-07 17:45 | 54.71773 | -132.13632 | 34258 ft | 423 kts | 313° |
| 2026-05-07 17:45 | 54.76253 | -132.20261 | 34261 ft | 423 kts | 313° |
| 2026-05-07 17:46 | 54.80719 | -132.26888 | 34258 ft | 423 kts | 313° |
| 2026-05-07 17:46 | 54.84410 | -132.32381 | 34256 ft | 423 kts | 313° |
| 2026-05-07 17:47 | 54.89569 | -132.40081 | 34257 ft | 423 kts | 312° |
| 2026-05-07 17:47 | 54.93311 | -132.45683 | 34250 ft | 423 kts | 312° |
| 2026-05-07 17:48 | 54.97706 | -132.52282 | 34250 ft | 423 kts | 312° |
| 2026-05-07 17:48 | 55.02133 | -132.58949 | 34259 ft | 423 kts | 312° |
| 2026-05-07 17:49 | 55.06582 | -132.65668 | 34257 ft | 423 kts | 312° |
| 2026-05-07 17:49 | 55.11034 | -132.72412 | 34266 ft | 423 kts | 312° |
| 2026-05-07 17:50 | 55.15476 | -132.79161 | 34264 ft | 423 kts | 312° |
| 2026-05-07 17:50 | 55.19908 | -132.85918 | 34275 ft | 422 kts | 312° |
| 2026-05-07 17:51 | 55.24335 | -132.92686 | 34267 ft | 422 kts | 312° |
| 2026-05-07 17:51 | 55.28754 | -132.99465 | 34272 ft | 422 kts | 311° |
| 2026-05-07 17:52 | 55.33179 | -133.06272 | 34277 ft | 422 kts | 311° |
| 2026-05-07 17:52 | 55.37571 | -133.13050 | 34277 ft | 422 kts | 311° |
| 2026-05-07 17:53 | 55.41984 | -133.19880 | 34273 ft | 422 kts | 311° |
| 2026-05-07 17:53 | 55.46387 | -133.26718 | 34268 ft | 422 kts | 311° |
| 2026-05-07 17:54 | 55.50787 | -133.33570 | 34277 ft | 422 kts | 311° |
| 2026-05-07 17:54 | 55.55173 | -133.40424 | 34277 ft | 421 kts | 311° |
| 2026-05-07 17:55 | 55.59562 | -133.47303 | 34273 ft | 421 kts | 311° |
| 2026-05-07 17:55 | 55.63937 | -133.54180 | 34275 ft | 421 kts | 311° |
| 2026-05-07 17:56 | 55.68312 | -133.61081 | 34282 ft | 421 kts | 311° |
| 2026-05-07 17:56 | 55.72652 | -133.67946 | 34271 ft | 421 kts | 311° |
| 2026-05-07 17:57 | 55.76307 | -133.73745 | 34265 ft | 420 kts | 310° |
| 2026-05-07 17:57 | 55.81367 | -133.81798 | 34274 ft | 420 kts | 310° |
| 2026-05-07 17:58 | 55.85716 | -133.88743 | 34274 ft | 420 kts | 310° |
| 2026-05-07 17:58 | 55.90061 | -133.95705 | 34278 ft | 420 kts | 310° |
| 2026-05-07 17:59 | 55.94405 | -134.02684 | 34273 ft | 420 kts | 310° |
| 2026-05-07 17:59 | 55.98739 | -134.09669 | 34271 ft | 419 kts | 310° |
| 2026-05-07 18:00 | 56.03039 | -134.16623 | 34278 ft | 419 kts | 310° |
| 2026-05-07 18:00 | 56.07358 | -134.23631 | 34281 ft | 419 kts | 310° |
| 2026-05-07 18:01 | 56.11669 | -134.30646 | 34276 ft | 418 kts | 310° |
| 2026-05-07 18:01 | 56.15974 | -134.37673 | 34277 ft | 418 kts | 310° |
| 2026-05-07 18:02 | 56.22414 | -134.48228 | 34279 ft | 417 kts | 309° |
| 2026-05-07 18:03 | 56.26703 | -134.55286 | 34279 ft | 417 kts | 309° |
| 2026-05-07 18:03 | 56.30984 | -134.62354 | 34293 ft | 417 kts | 309° |
| 2026-05-07 18:04 | 56.35235 | -134.69394 | 34300 ft | 418 kts | 309° |
| 2026-05-07 18:04 | 56.39507 | -134.76492 | 34289 ft | 418 kts | 309° |
| 2026-05-07 18:05 | 56.43790 | -134.83628 | 34301 ft | 418 kts | 309° |
| 2026-05-07 18:05 | 56.48060 | -134.90767 | 34289 ft | 418 kts | 309° |
| 2026-05-07 18:06 | 56.52322 | -134.97916 | 34283 ft | 418 kts | 309° |
| 2026-05-07 18:06 | 56.56589 | -135.05098 | 34274 ft | 418 kts | 309° |
| 2026-05-07 18:07 | 56.60847 | -135.12285 | 34281 ft | 418 kts | 309° |
| 2026-05-07 18:07 | 56.65092 | -135.19473 | 34277 ft | 417 kts | 309° |
| 2026-05-07 18:08 | 56.69332 | -135.26678 | 34277 ft | 417 kts | 309° |
| 2026-05-07 18:08 | 56.73569 | -135.33901 | 34281 ft | 417 kts | 308° |
| 2026-05-07 18:09 | 56.77794 | -135.41127 | 34282 ft | 416 kts | 308° |
| 2026-05-07 18:09 | 56.81986 | -135.48320 | 34286 ft | 416 kts | 308° |
| 2026-05-07 18:10 | 56.86164 | -135.55631 | 34282 ft | 412 kts | 304° |
| 2026-05-07 18:10 | 56.89711 | -135.63698 | 34284 ft | 407 kts | 300° |
| 2026-05-07 18:11 | 56.93201 | -135.71895 | 34287 ft | 407 kts | 300° |
| 2026-05-07 18:11 | 56.96687 | -135.80070 | 34285 ft | 407 kts | 300° |
| 2026-05-07 18:12 | 57.00182 | -135.88262 | 34284 ft | 407 kts | 300° |
| 2026-05-07 18:12 | 57.03646 | -135.96395 | 34283 ft | 407 kts | 300° |
| 2026-05-07 18:13 | 57.07131 | -136.04601 | 34275 ft | 407 kts | 300° |
| 2026-05-07 18:13 | 57.10608 | -136.12818 | 34283 ft | 407 kts | 300° |
| 2026-05-07 18:14 | 57.14082 | -136.21054 | 34273 ft | 407 kts | 300° |
| 2026-05-07 18:14 | 57.17547 | -136.29298 | 34276 ft | 407 kts | 300° |
| 2026-05-07 18:15 | 57.21009 | -136.37566 | 34278 ft | 407 kts | 300° |
| 2026-05-07 18:15 | 57.24465 | -136.45845 | 34276 ft | 407 kts | 300° |
| 2026-05-07 18:16 | 57.27915 | -136.54140 | 34276 ft | 407 kts | 300° |
| 2026-05-07 18:16 | 57.31358 | -136.62445 | 34271 ft | 407 kts | 300° |
| 2026-05-07 18:17 | 57.34798 | -136.70773 | 34276 ft | 407 kts | 300° |
| 2026-05-07 18:17 | 57.38207 | -136.79054 | 34269 ft | 407 kts | 299° |
| 2026-05-07 18:18 | 57.41633 | -136.87405 | 34273 ft | 406 kts | 299° |
| 2026-05-07 18:18 | 57.45049 | -136.95761 | 34271 ft | 406 kts | 299° |
| 2026-05-07 18:19 | 57.48459 | -137.04131 | 34274 ft | 406 kts | 299° |
| 2026-05-07 18:19 | 57.51866 | -137.12526 | 34274 ft | 406 kts | 299° |
| 2026-05-07 18:20 | 57.55270 | -137.20941 | 34274 ft | 407 kts | 299° |
| 2026-05-07 18:20 | 57.58668 | -137.29370 | 34269 ft | 407 kts | 298° |
| 2026-05-07 18:21 | 57.62061 | -137.37817 | 34273 ft | 407 kts | 298° |
| 2026-05-07 18:21 | 57.65448 | -137.46278 | 34269 ft | 407 kts | 298° |
| 2026-05-07 18:22 | 57.68827 | -137.54749 | 34268 ft | 407 kts | 298° |
| 2026-05-07 18:22 | 57.72200 | -137.63236 | 34271 ft | 406 kts | 298° |
| 2026-05-07 18:23 | 57.75568 | -137.71739 | 34265 ft | 406 kts | 298° |
| 2026-05-07 18:23 | 57.78900 | -137.80183 | 34272 ft | 406 kts | 298° |
| 2026-05-07 18:24 | 57.82252 | -137.88707 | 34283 ft | 406 kts | 298° |
| 2026-05-07 18:24 | 57.85597 | -137.97244 | 34280 ft | 406 kts | 298° |
| 2026-05-07 18:25 | 57.88932 | -138.05786 | 34272 ft | 405 kts | 298° |
| 2026-05-07 18:25 | 57.92261 | -138.14342 | 34275 ft | 405 kts | 297° |
| 2026-05-07 18:26 | 57.95590 | -138.22927 | 34262 ft | 405 kts | 297° |
| 2026-05-07 18:26 | 57.98906 | -138.31513 | 34262 ft | 405 kts | 297° |
| 2026-05-07 18:27 | 58.02201 | -138.40074 | 34261 ft | 405 kts | 297° |
| 2026-05-07 18:27 | 58.05511 | -138.48706 | 34263 ft | 406 kts | 297° |
| 2026-05-07 18:28 | 58.08810 | -138.57339 | 34262 ft | 406 kts | 297° |
| 2026-05-07 18:28 | 58.12112 | -138.66011 | 34258 ft | 405 kts | 297° |
| 2026-05-07 18:29 | 58.15401 | -138.74681 | 34263 ft | 405 kts | 297° |
| 2026-05-07 18:29 | 58.18682 | -138.83361 | 34259 ft | 405 kts | 297° |
| 2026-05-07 18:30 | 58.21936 | -138.92002 | 34259 ft | 405 kts | 296° |
| 2026-05-07 18:30 | 58.25207 | -139.00719 | 34257 ft | 405 kts | 296° |
| 2026-05-07 18:31 | 58.28463 | -139.09429 | 34256 ft | 404 kts | 296° |
| 2026-05-07 18:31 | 58.31718 | -139.18166 | 34257 ft | 404 kts | 296° |
| 2026-05-07 18:32 | 58.34960 | -139.26903 | 34251 ft | 404 kts | 296° |
| 2026-05-07 18:32 | 58.38195 | -139.35649 | 34251 ft | 404 kts | 296° |
| 2026-05-07 18:33 | 58.41406 | -139.44364 | 34250 ft | 404 kts | 296° |
| 2026-05-07 18:33 | 58.44631 | -139.53151 | 34252 ft | 404 kts | 296° |
| 2026-05-07 18:34 | 58.47845 | -139.61940 | 34255 ft | 404 kts | 296° |
| 2026-05-07 18:34 | 58.51052 | -139.70742 | 34255 ft | 403 kts | 295° |
| 2026-05-07 18:35 | 58.54254 | -139.79562 | 34253 ft | 403 kts | 295° |
| 2026-05-07 18:35 | 58.57449 | -139.88396 | 34252 ft | 403 kts | 295° |
| 2026-05-07 18:36 | 58.60634 | -139.97235 | 34250 ft | 403 kts | 295° |
| 2026-05-07 18:36 | 58.63277 | -140.04596 | 34253 ft | 403 kts | 295° |
| 2026-05-07 18:37 | 58.66965 | -140.14906 | 34249 ft | 403 kts | 295° |
| 2026-05-07 18:37 | 58.69616 | -140.22342 | 34248 ft | 402 kts | 295° |
| 2026-05-07 18:38 | 58.72777 | -140.31244 | 34248 ft | 402 kts | 295° |
| 2026-05-07 18:38 | 58.75909 | -140.40096 | 34249 ft | 402 kts | 295° |
| 2026-05-07 18:39 | 58.79053 | -140.49011 | 34245 ft | 402 kts | 295° |
| 2026-05-07 18:39 | 58.82124 | -140.58004 | 34242 ft | 399 kts | 292° |
| 2026-05-07 18:40 | 58.84981 | -140.67193 | 34240 ft | 398 kts | 291° |
| 2026-05-07 18:40 | 58.87807 | -140.76414 | 34235 ft | 399 kts | 291° |
| 2026-05-07 18:41 | 58.90648 | -140.85638 | 34234 ft | 399 kts | 291° |
| 2026-05-07 18:41 | 58.93496 | -140.94870 | 34236 ft | 400 kts | 291° |
| 2026-05-07 18:42 | 58.96348 | -141.04127 | 34238 ft | 400 kts | 291° |
| 2026-05-07 18:42 | 58.99173 | -141.13331 | 34236 ft | 400 kts | 291° |
| 2026-05-07 18:43 | 59.02014 | -141.22623 | 34238 ft | 401 kts | 291° |
| 2026-05-07 18:43 | 59.04854 | -141.31947 | 34240 ft | 401 kts | 291° |
| 2026-05-07 18:44 | 59.07692 | -141.41308 | 34236 ft | 402 kts | 291° |
| 2026-05-07 18:44 | 59.10530 | -141.50702 | 34237 ft | 403 kts | 291° |
| 2026-05-07 18:45 | 59.13368 | -141.60134 | 34230 ft | 404 kts | 291° |
| 2026-05-07 18:45 | 59.16199 | -141.69584 | 34233 ft | 404 kts | 291° |
| 2026-05-07 18:46 | 59.19032 | -141.79079 | 34230 ft | 405 kts | 291° |
| 2026-05-07 18:46 | 59.21867 | -141.88620 | 34232 ft | 406 kts | 291° |
| 2026-05-07 18:47 | 59.24697 | -141.98182 | 34236 ft | 407 kts | 291° |
| 2026-05-07 18:47 | 59.27528 | -142.07788 | 34231 ft | 408 kts | 291° |
| 2026-05-07 18:48 | 59.30344 | -142.17384 | 34230 ft | 409 kts | 291° |
| 2026-05-07 18:48 | 59.33175 | -142.27068 | 34228 ft | 410 kts | 291° |
| 2026-05-07 18:49 | 59.36007 | -142.36796 | 34221 ft | 411 kts | 291° |
| 2026-05-07 18:49 | 59.38838 | -142.46566 | 34221 ft | 412 kts | 291° |
| 2026-05-07 18:50 | 59.41646 | -142.56297 | 34222 ft | 413 kts | 291° |
| 2026-05-07 18:50 | 59.44472 | -142.66132 | 34220 ft | 413 kts | 291° |
| 2026-05-07 18:51 | 59.47291 | -142.75983 | 34220 ft | 414 kts | 291° |
| 2026-05-07 18:51 | 59.50114 | -142.85889 | 34222 ft | 414 kts | 291° |
| 2026-05-07 18:52 | 59.52928 | -142.95810 | 34223 ft | 415 kts | 291° |
| 2026-05-07 18:52 | 59.55742 | -143.05774 | 34215 ft | 416 kts | 291° |
| 2026-05-07 18:53 | 59.58552 | -143.15768 | 34219 ft | 417 kts | 291° |
| 2026-05-07 18:53 | 59.61344 | -143.25739 | 34216 ft | 418 kts | 291° |
| 2026-05-07 18:54 | 59.64148 | -143.35802 | 34215 ft | 418 kts | 291° |
| 2026-05-07 18:54 | 59.66955 | -143.45914 | 34212 ft | 419 kts | 291° |
| 2026-05-07 18:55 | 59.69757 | -143.56058 | 34214 ft | 421 kts | 291° |
| 2026-05-07 18:55 | 59.72561 | -143.66251 | 34211 ft | 421 kts | 291° |
| 2026-05-07 18:56 | 59.75361 | -143.76473 | 34211 ft | 422 kts | 291° |
| 2026-05-07 18:56 | 59.78155 | -143.86722 | 34213 ft | 422 kts | 291° |
| 2026-05-07 18:57 | 59.80925 | -143.96934 | 34208 ft | 423 kts | 291° |
| 2026-05-07 18:57 | 59.83716 | -144.07266 | 34202 ft | 425 kts | 291° |
| 2026-05-07 18:58 | 59.86508 | -144.17649 | 34201 ft | 426 kts | 291° |
| 2026-05-07 18:58 | 59.89296 | -144.28064 | 34196 ft | 427 kts | 291° |
| 2026-05-07 18:59 | 59.92079 | -144.38508 | 34193 ft | 426 kts | 291° |
| 2026-05-07 18:59 | 59.94848 | -144.48953 | 34200 ft | 427 kts | 291° |
| 2026-05-07 19:00 | 59.97617 | -144.59446 | 34193 ft | 428 kts | 291° |
| 2026-05-07 19:00 | 59.98745 | -144.63732 | 34190 ft | 428 kts | 291° |
| 2026-05-07 19:01 | 60.01149 | -144.72901 | 34197 ft | 429 kts | 291° |
| 2026-05-07 19:01 | 60.03917 | -144.83502 | 34192 ft | 430 kts | 291° |
| 2026-05-07 19:02 | 60.06656 | -144.94040 | 34187 ft | 430 kts | 291° |
| 2026-05-07 19:02 | 60.09409 | -145.04681 | 34190 ft | 430 kts | 291° |
| 2026-05-07 19:03 | 60.12151 | -145.15332 | 34188 ft | 430 kts | 291° |
| 2026-05-07 19:03 | 60.14891 | -145.26030 | 34191 ft | 431 kts | 291° |
| 2026-05-07 19:04 | 60.17622 | -145.36741 | 34195 ft | 431 kts | 291° |
| 2026-05-07 19:04 | 60.20346 | -145.47476 | 34197 ft | 432 kts | 291° |
| 2026-05-07 19:05 | 60.23037 | -145.58133 | 34191 ft | 432 kts | 291° |
| 2026-05-07 19:05 | 60.25482 | -145.67862 | 34198 ft | 432 kts | 291° |
| 2026-05-07 19:06 | 60.28193 | -145.78695 | 34199 ft | 432 kts | 291° |
| 2026-05-07 19:06 | 60.32238 | -145.94966 | 34204 ft | 433 kts | 291° |
| 2026-05-07 19:07 | 60.34932 | -146.05869 | 34195 ft | 434 kts | 291° |
| 2026-05-07 19:07 | 60.37600 | -146.16716 | 34202 ft | 434 kts | 291° |
| 2026-05-07 19:08 | 60.40275 | -146.27651 | 34200 ft | 434 kts | 291° |
| 2026-05-07 19:08 | 60.42948 | -146.38629 | 34195 ft | 435 kts | 291° |
| 2026-05-07 19:09 | 60.45613 | -146.49627 | 34213 ft | 435 kts | 291° |
| 2026-05-07 19:09 | 60.48308 | -146.60635 | 34199 ft | 438 kts | 295° |
| 2026-05-07 19:10 | 60.51876 | -146.70683 | 34209 ft | 444 kts | 302° |
| 2026-05-07 19:10 | 60.55667 | -146.80583 | 34203 ft | 444 kts | 302° |
| 2026-05-07 19:11 | 60.59382 | -146.90613 | 34202 ft | 444 kts | 301° |
| 2026-05-07 19:11 | 60.63045 | -147.00674 | 34200 ft | 444 kts | 301° |
| 2026-05-07 19:12 | 60.66612 | -147.10597 | 34202 ft | 444 kts | 300° |
| 2026-05-07 19:12 | 60.70208 | -147.20832 | 34198 ft | 444 kts | 300° |
| 2026-05-07 19:13 | 60.73797 | -147.31105 | 34198 ft | 444 kts | 300° |
| 2026-05-07 19:13 | 60.77359 | -147.41324 | 34192 ft | 444 kts | 300° |
| 2026-05-07 19:14 | 60.80945 | -147.51642 | 34195 ft | 444 kts | 300° |
| 2026-05-07 19:14 | 60.84520 | -147.61973 | 34194 ft | 445 kts | 300° |
| 2026-05-07 19:15 | 60.88092 | -147.72342 | 34196 ft | 445 kts | 300° |
| 2026-05-07 19:15 | 60.91633 | -147.82668 | 34159 ft | 446 kts | 300° |
| 2026-05-07 19:16 | 60.93418 | -147.87898 | 33388 ft | 454 kts | 300° |
| 2026-05-07 19:16 | 60.95232 | -147.93216 | 32723 ft | 447 kts | 300° |
| 2026-05-07 19:16 | 60.97026 | -147.98486 | 31663 ft | 451 kts | 300° |
| 2026-05-07 19:16 | 60.98813 | -148.03746 | 30938 ft | 446 kts | 300° |
| 2026-05-07 19:17 | 61.00592 | -148.08994 | 29778 ft | 448 kts | 300° |
| 2026-05-07 19:17 | 61.02372 | -148.14266 | 28665 ft | 448 kts | 300° |
| 2026-05-07 19:17 | 61.04147 | -148.19531 | 27672 ft | 446 kts | 300° |
| 2026-05-07 19:17 | 61.05890 | -148.24714 | 26671 ft | 446 kts | 300° |
| 2026-05-07 19:18 | 61.07652 | -148.29965 | 25727 ft | 445 kts | 300° |
| 2026-05-07 19:18 | 61.09398 | -148.35171 | 24984 ft | 438 kts | 300° |
| 2026-05-07 19:18 | 61.11121 | -148.40323 | 24252 ft | 433 kts | 300° |
| 2026-05-07 19:18 | 61.12822 | -148.45423 | 23495 ft | 428 kts | 300° |
| 2026-05-07 19:19 | 61.14386 | -148.50603 | 22611 ft | 419 kts | 290° |
| 2026-05-07 19:19 | 61.15387 | -148.56186 | 21917 ft | 409 kts | 285° |
| 2026-05-07 19:19 | 61.16316 | -148.61716 | 21159 ft | 405 kts | 285° |
| 2026-05-07 19:19 | 61.17250 | -148.67195 | 20489 ft | 400 kts | 286° |
| 2026-05-07 19:20 | 61.18183 | -148.72607 | 19771 ft | 396 kts | 286° |
| 2026-05-07 19:20 | 61.19100 | -148.77881 | 19096 ft | 393 kts | 286° |
| 2026-05-07 19:20 | 61.20024 | -148.83183 | 18422 ft | 389 kts | 286° |
| 2026-05-07 19:20 | 61.20939 | -148.88442 | 17647 ft | 386 kts | 286° |
| 2026-05-07 19:21 | 61.21843 | -148.93644 | 16961 ft | 381 kts | 286° |
| 2026-05-07 19:21 | 61.22735 | -148.98796 | 16256 ft | 378 kts | 287° |
| 2026-05-07 19:21 | 61.23621 | -149.03932 | 15545 ft | 377 kts | 286° |
| 2026-05-07 19:21 | 61.24457 | -149.09049 | 14882 ft | 372 kts | 281° |
| 2026-05-07 19:22 | 61.24879 | -149.14336 | 14133 ft | 370 kts | 273° |
| 2026-05-07 19:22 | 61.25127 | -149.19552 | 13412 ft | 366 kts | 273° |
| 2026-05-07 19:22 | 61.25394 | -149.24770 | 12768 ft | 363 kts | 274° |
| 2026-05-07 19:22 | 61.25685 | -149.29973 | 12134 ft | 361 kts | 274° |
| 2026-05-07 19:23 | 61.25988 | -149.35141 | 11468 ft | 360 kts | 274° |
| 2026-05-07 19:23 | 61.26293 | -149.40282 | 10983 ft | 353 kts | 274° |
| 2026-05-07 19:23 | 61.26586 | -149.45229 | 10850 ft | 339 kts | 274° |
| 2026-05-07 19:23 | 61.26865 | -149.50025 | 10721 ft | 330 kts | 274° |
| 2026-05-07 19:24 | 61.27133 | -149.54720 | 10568 ft | 325 kts | 274° |
| 2026-05-07 19:24 | 61.27394 | -149.59304 | 10419 ft | 313 kts | 274° |
| 2026-05-07 19:24 | 61.27642 | -149.63657 | 10295 ft | 302 kts | 274° |
| 2026-05-07 19:24 | 61.27883 | -149.67917 | 10165 ft | 292 kts | 274° |
| 2026-05-07 19:25 | 61.28276 | -149.72004 | 10018 ft | 287 kts | 290° |
| 2026-05-07 19:25 | 61.29248 | -149.75540 | 9895 ft | 278 kts | 298° |
| 2026-05-07 19:25 | 61.30274 | -149.78962 | 9491 ft | 278 kts | 298° |
| 2026-05-07 19:25 | 61.31287 | -149.82368 | 9175 ft | 276 kts | 298° |
| 2026-05-07 19:26 | 61.32290 | -149.85777 | 8846 ft | 276 kts | 298° |
| 2026-05-07 19:26 | 61.33286 | -149.89183 | 8516 ft | 275 kts | 298° |
| 2026-05-07 19:26 | 61.34264 | -149.92535 | 8199 ft | 274 kts | 298° |
| 2026-05-07 19:26 | 61.35535 | -149.95453 | 8000 ft | 274 kts | 325° |
| 2026-05-07 19:27 | 61.37274 | -149.97056 | 7947 ft | 275 kts | 342° |
| 2026-05-07 19:27 | 61.39159 | -149.98157 | 7438 ft | 284 kts | 342° |
| 2026-05-07 19:27 | 61.41046 | -149.99318 | 7144 ft | 281 kts | 342° |
| 2026-05-07 19:27 | 61.42917 | -150.00462 | 6860 ft | 279 kts | 342° |
| 2026-05-07 19:28 | 61.44765 | -150.01586 | 6586 ft | 276 kts | 342° |
| 2026-05-07 19:28 | 61.46598 | -150.02701 | 6321 ft | 272 kts | 342° |
| 2026-05-07 19:28 | 61.48248 | -150.04355 | 6076 ft | 264 kts | 314° |
| 2026-05-07 19:28 | 61.49155 | -150.07495 | 5886 ft | 250 kts | 277° |
| 2026-05-07 19:29 | 61.48995 | -150.10994 | 5704 ft | 243 kts | 240° |
| 2026-05-07 19:29 | 61.47891 | -150.13455 | 5569 ft | 228 kts | 204° |
| 2026-05-07 19:29 | 61.46416 | -150.14386 | 5427 ft | 218 kts | 191° |
| 2026-05-07 19:29 | 61.44931 | -150.14644 | 5241 ft | 213 kts | 180° |
| 2026-05-07 19:30 | 61.43451 | -150.14632 | 5062 ft | 213 kts | 179° |
| 2026-05-07 19:30 | 61.41967 | -150.14497 | 4888 ft | 215 kts | 167° |
| 2026-05-07 19:30 | 61.40545 | -150.13539 | 4541 ft | 218 kts | 159° |
| 2026-05-07 19:30 | 61.39157 | -150.12298 | 4316 ft | 215 kts | 158° |
| 2026-05-07 19:31 | 61.37805 | -150.11104 | 4172 ft | 208 kts | 159° |
| 2026-05-07 19:31 | 61.36457 | -150.10172 | 3988 ft | 200 kts | 165° |
| 2026-05-07 19:31 | 61.35113 | -150.09423 | 3721 ft | 199 kts | 167° |
| 2026-05-07 19:31 | 61.33755 | -150.08843 | 3421 ft | 200 kts | 169° |
| 2026-05-07 19:32 | 61.32412 | -150.08276 | 3211 ft | 195 kts | 166° |
| 2026-05-07 19:32 | 61.31126 | -150.07595 | 2859 ft | 186 kts | 165° |
| 2026-05-07 19:32 | 61.29904 | -150.06925 | 2526 ft | 177 kts | 166° |
| 2026-05-07 19:32 | 61.28738 | -150.06320 | 2178 ft | 171 kts | 166° |
| 2026-05-07 19:33 | 61.27625 | -150.05730 | 1957 ft | 158 kts | 166° |
| 2026-05-07 19:33 | 61.26603 | -150.05175 | 1734 ft | 149 kts | 165° |
| 2026-05-07 19:33 | 61.25630 | -150.04640 | 1512 ft | 141 kts | 166° |
| 2026-05-07 19:33 | 61.24677 | -150.04117 | 1249 ft | 144 kts | 165° |
| 2026-05-07 19:34 | 61.23732 | -150.03560 | 1114 ft | 139 kts | 165° |
| 2026-05-07 19:34 | 61.22801 | -150.03035 | 921 ft | 139 kts | 166° |
| 2026-05-07 19:34 | 61.21875 | -150.02538 | 661 ft | 136 kts | 166° |
| 2026-05-07 19:34 | 61.20969 | -150.02018 | 475 ft | 137 kts | 164° |
| 2026-05-07 19:35 | 61.20053 | -150.01506 | 244 ft | 136 kts | 166° |
| 2026-05-07 19:35 | 61.19176 | -150.01013 | 147 ft | 123 kts | 160° |
| 2026-05-07 19:35 | 61.18488 | -150.00626 | 144 ft | 81 kts | 165° |
| 2026-05-07 19:35 | 61.18095 | -150.00409 | 140 ft | 29 kts | 166° |
| 2026-05-07 19:36 | 61.17941 | -150.00274 | 139 ft | 24 kts | 149° |
| 2026-05-07 19:36 | 61.17821 | -150.00083 | 134 ft | 13 kts | 134° |
| 2026-05-07 19:36 | 61.17761 | -149.99957 | 125 ft | 12 kts | 135° |
| 2026-05-07 19:36 | 61.17699 | -149.99837 | 129 ft | 12 kts | 141° |
| 2026-05-07 19:37 | 61.17672 | -149.99686 | 126 ft | 12 kts | 83° |
| 2026-05-07 19:37 | 61.17699 | -149.99498 | 119 ft | 16 kts | 65° |
| 2026-05-07 19:37 | 61.17735 | -149.99259 | 111 ft | 15 kts | 79° |
| 2026-05-07 19:37 | 61.17678 | -149.99090 | 105 ft | 9 kts | 104° |
| 2026-05-07 19:38 | 61.17715 | -149.99012 | 103 ft | 8 kts | 24° |
| 2026-05-07 19:38 | 61.17754 | -149.98977 | 105 ft | 0 kts | 22° |